sensor_id;sensor_type;location;lat;lon;timestamp;P1;durP1;ratioP1;P2;durP2;ratioP2
51764;SDS011;37835;53.256;6.456;2023-02-25T00:00:09;27.73;;;4.13;;
51764;SDS011;37835;53.256;6.456;2023-02-25T00:02:45;30.45;;;3.97;;
51764;SDS011;37835;53.256;6.456;2023-02-25T00:05:11;26.23;;;3.83;;
51764;SDS011;37835;53.256;6.456;2023-02-25T00:07:37;39.00;;;5.97;;
51764;SDS011;37835;53.256;6.456;2023-02-25T00:10:04;34.08;;;4.72;;
51764;SDS011;37835;53.256;6.456;2023-02-25T00:12:30;42.17;;;5.50;;
51764;SDS011;37835;53.256;6.456;2023-02-25T00:14:56;44.38;;;6.07;;
51764;SDS011;37835;53.256;6.456;2023-02-25T00:17:22;37.25;;;6.03;;
51764;SDS011;37835;53.256;6.456;2023-02-25T00:19:48;34.58;;;4.80;;
51764;SDS011;37835;53.256;6.456;2023-02-25T00:22:13;36.75;;;4.78;;
51764;SDS011;37835;53.256;6.456;2023-02-25T00:24:39;34.35;;;5.13;;
51764;SDS011;37835;53.256;6.456;2023-02-25T00:27:04;38.97;;;5.43;;
51764;SDS011;37835;53.256;6.456;2023-02-25T00:29:30;39.83;;;5.85;;
51764;SDS011;37835;53.256;6.456;2023-02-25T00:31:56;45.75;;;5.72;;
51764;SDS011;37835;53.256;6.456;2023-02-25T00:34:21;31.90;;;4.75;;
51764;SDS011;37835;53.256;6.456;2023-02-25T00:36:47;35.72;;;4.47;;
51764;SDS011;37835;53.256;6.456;2023-02-25T00:39:14;40.65;;;5.65;;
51764;SDS011;37835;53.256;6.456;2023-02-25T00:41:39;26.70;;;4.30;;
51764;SDS011;37835;53.256;6.456;2023-02-25T00:44:05;43.22;;;5.78;;
51764;SDS011;37835;53.256;6.456;2023-02-25T00:46:31;38.03;;;5.88;;
51764;SDS011;37835;53.256;6.456;2023-02-25T00:48:58;36.10;;;4.53;;
51764;SDS011;37835;53.256;6.456;2023-02-25T00:51:27;33.67;;;5.50;;
51764;SDS011;37835;53.256;6.456;2023-02-25T00:53:54;31.73;;;5.35;;
51764;SDS011;37835;53.256;6.456;2023-02-25T00:56:20;41.00;;;4.57;;
51764;SDS011;37835;53.256;6.456;2023-02-25T00:58:48;36.45;;;5.57;;
51764;SDS011;37835;53.256;6.456;2023-02-25T01:01:22;26.10;;;4.35;;
51764;SDS011;37835;53.256;6.456;2023-02-25T01:03:50;39.45;;;5.30;;
51764;SDS011;37835;53.256;6.456;2023-02-25T01:06:19;41.75;;;5.22;;
51764;SDS011;37835;53.256;6.456;2023-02-25T01:08:45;31.75;;;4.22;;
51764;SDS011;37835;53.256;6.456;2023-02-25T01:11:12;39.10;;;4.70;;
51764;SDS011;37835;53.256;6.456;2023-02-25T01:13:40;30.95;;;3.70;;
51764;SDS011;37835;53.256;6.456;2023-02-25T01:16:13;31.20;;;4.07;;
51764;SDS011;37835;53.256;6.456;2023-02-25T01:18:40;27.42;;;3.80;;
51764;SDS011;37835;53.256;6.456;2023-02-25T01:21:07;32.78;;;4.53;;
51764;SDS011;37835;53.256;6.456;2023-02-25T01:23:38;34.50;;;4.35;;
51764;SDS011;37835;53.256;6.456;2023-02-25T01:26:03;35.40;;;4.93;;
51764;SDS011;37835;53.256;6.456;2023-02-25T01:28:29;34.92;;;3.83;;
51764;SDS011;37835;53.256;6.456;2023-02-25T01:30:55;24.65;;;4.13;;
51764;SDS011;37835;53.256;6.456;2023-02-25T01:33:20;27.77;;;3.95;;
51764;SDS011;37835;53.256;6.456;2023-02-25T01:35:46;22.25;;;4.30;;
51764;SDS011;37835;53.256;6.456;2023-02-25T01:38:11;27.10;;;3.92;;
51764;SDS011;37835;53.256;6.456;2023-02-25T01:40:37;21.23;;;3.45;;
51764;SDS011;37835;53.256;6.456;2023-02-25T01:43:03;26.80;;;3.75;;
51764;SDS011;37835;53.256;6.456;2023-02-25T01:45:31;27.73;;;3.50;;
51764;SDS011;37835;53.256;6.456;2023-02-25T01:47:59;22.55;;;3.58;;
51764;SDS011;37835;53.256;6.456;2023-02-25T01:50:38;27.95;;;3.55;;
51764;SDS011;37835;53.256;6.456;2023-02-25T01:53:10;31.40;;;3.40;;
51764;SDS011;37835;53.256;6.456;2023-02-25T01:55:38;33.08;;;3.92;;
51764;SDS011;37835;53.256;6.456;2023-02-25T01:58:05;24.92;;;3.03;;
51764;SDS011;37835;53.256;6.456;2023-02-25T02:00:33;23.92;;;3.40;;
51764;SDS011;37835;53.256;6.456;2023-02-25T02:02:59;34.13;;;4.65;;
51764;SDS011;37835;53.256;6.456;2023-02-25T02:05:29;29.52;;;3.90;;
51764;SDS011;37835;53.256;6.456;2023-02-25T02:08:08;31.63;;;3.75;;
51764;SDS011;37835;53.256;6.456;2023-02-25T02:10:34;27.17;;;4.47;;
51764;SDS011;37835;53.256;6.456;2023-02-25T02:12:59;28.70;;;4.05;;
51764;SDS011;37835;53.256;6.456;2023-02-25T02:15:25;27.48;;;3.80;;
51764;SDS011;37835;53.256;6.456;2023-02-25T02:18:10;31.63;;;3.50;;
51764;SDS011;37835;53.256;6.456;2023-02-25T02:29:21;25.60;;;2.95;;
51764;SDS011;37835;53.256;6.456;2023-02-25T02:32:34;31.30;;;4.63;;
51764;SDS011;37835;53.256;6.456;2023-02-25T02:35:09;29.30;;;4.07;;
51764;SDS011;37835;53.256;6.456;2023-02-25T02:38:06;31.45;;;3.70;;
51764;SDS011;37835;53.256;6.456;2023-02-25T02:40:57;23.15;;;4.00;;
51764;SDS011;37835;53.256;6.456;2023-02-25T02:43:33;24.45;;;3.25;;
51764;SDS011;37835;53.256;6.456;2023-02-25T02:46:09;27.67;;;3.78;;
51764;SDS011;37835;53.256;6.456;2023-02-25T02:48:58;31.95;;;3.38;;
51764;SDS011;37835;53.256;6.456;2023-02-25T02:52:31;21.58;;;3.17;;
51764;SDS011;37835;53.256;6.456;2023-02-25T02:54:34;25.77;;;3.42;;
51764;SDS011;37835;53.256;6.456;2023-02-25T02:57:02;19.55;;;2.90;;
51764;SDS011;37835;53.256;6.456;2023-02-25T02:59:34;10.77;;;1.92;;
51764;SDS011;37835;53.256;6.456;2023-02-25T03:02:17;18.67;;;1.92;;
51764;SDS011;37835;53.256;6.456;2023-02-25T03:04:48;9.68;;;1.40;;
51764;SDS011;37835;53.256;6.456;2023-02-25T03:07:17;15.05;;;1.63;;
51764;SDS011;37835;53.256;6.456;2023-02-25T03:09:47;9.10;;;1.50;;
51764;SDS011;37835;53.256;6.456;2023-02-25T03:12:16;16.83;;;1.52;;
51764;SDS011;37835;53.256;6.456;2023-02-25T03:14:42;11.93;;;1.90;;
51764;SDS011;37835;53.256;6.456;2023-02-25T03:17:09;22.08;;;2.00;;
51764;SDS011;37835;53.256;6.456;2023-02-25T03:22:09;16.23;;;2.47;;
51764;SDS011;37835;53.256;6.456;2023-02-25T03:24:40;10.80;;;1.40;;
51764;SDS011;37835;53.256;6.456;2023-02-25T03:27:18;22.23;;;2.85;;
51764;SDS011;37835;53.256;6.456;2023-02-25T03:29:55;24.95;;;2.13;;
51764;SDS011;37835;53.256;6.456;2023-02-25T03:32:37;18.90;;;2.63;;
51764;SDS011;37835;53.256;6.456;2023-02-25T03:35:06;14.23;;;1.92;;
51764;SDS011;37835;53.256;6.456;2023-02-25T03:37:34;14.27;;;1.27;;
51764;SDS011;37835;53.256;6.456;2023-02-25T03:40:03;16.17;;;1.35;;
51764;SDS011;37835;53.256;6.456;2023-02-25T03:42:35;15.80;;;1.33;;
51764;SDS011;37835;53.256;6.456;2023-02-25T03:45:18;17.88;;;1.05;;
51764;SDS011;37835;53.256;6.456;2023-02-25T03:47:45;12.73;;;1.27;;
51764;SDS011;37835;53.256;6.456;2023-02-25T03:50:18;9.75;;;1.33;;
51764;SDS011;37835;53.256;6.456;2023-02-25T03:52:45;12.82;;;1.25;;
51764;SDS011;37835;53.256;6.456;2023-02-25T03:55:11;7.75;;;1.80;;
51764;SDS011;37835;53.256;6.456;2023-02-25T03:57:41;9.85;;;1.10;;
51764;SDS011;37835;53.256;6.456;2023-02-25T04:00:11;6.93;;;0.88;;
51764;SDS011;37835;53.256;6.456;2023-02-25T04:02:49;7.10;;;0.40;;
51764;SDS011;37835;53.256;6.456;2023-02-25T04:05:16;8.25;;;0.88;;
51764;SDS011;37835;53.256;6.456;2023-02-25T04:07:43;7.05;;;0.57;;
51764;SDS011;37835;53.256;6.456;2023-02-25T04:10:10;6.13;;;0.77;;
51764;SDS011;37835;53.256;6.456;2023-02-25T04:12:37;5.97;;;0.57;;
51764;SDS011;37835;53.256;6.456;2023-02-25T04:15:03;4.70;;;0.93;;
51764;SDS011;37835;53.256;6.456;2023-02-25T04:17:30;8.75;;;0.73;;
51764;SDS011;37835;53.256;6.456;2023-02-25T04:19:56;5.15;;;0.85;;
51764;SDS011;37835;53.256;6.456;2023-02-25T04:22:21;7.20;;;1.00;;
51764;SDS011;37835;53.256;6.456;2023-02-25T04:24:47;8.88;;;0.93;;
51764;SDS011;37835;53.256;6.456;2023-02-25T04:27:13;4.80;;;0.70;;
51764;SDS011;37835;53.256;6.456;2023-02-25T04:29:40;5.78;;;0.85;;
51764;SDS011;37835;53.256;6.456;2023-02-25T04:32:06;6.53;;;0.85;;
51764;SDS011;37835;53.256;6.456;2023-02-25T04:34:32;8.93;;;0.93;;
51764;SDS011;37835;53.256;6.456;2023-02-25T04:36:57;5.10;;;0.60;;
51764;SDS011;37835;53.256;6.456;2023-02-25T04:39:26;10.45;;;1.00;;
51764;SDS011;37835;53.256;6.456;2023-02-25T04:41:51;4.05;;;0.68;;
51764;SDS011;37835;53.256;6.456;2023-02-25T04:44:17;6.68;;;0.80;;
51764;SDS011;37835;53.256;6.456;2023-02-25T04:46:43;11.52;;;1.38;;
51764;SDS011;37835;53.256;6.456;2023-02-25T04:49:09;9.25;;;0.95;;
51764;SDS011;37835;53.256;6.456;2023-02-25T04:51:36;9.95;;;0.88;;
51764;SDS011;37835;53.256;6.456;2023-02-25T04:54:02;7.30;;;0.80;;
51764;SDS011;37835;53.256;6.456;2023-02-25T04:56:28;8.80;;;1.30;;
51764;SDS011;37835;53.256;6.456;2023-02-25T04:58:55;7.50;;;0.93;;
51764;SDS011;37835;53.256;6.456;2023-02-25T05:01:21;6.85;;;0.65;;
51764;SDS011;37835;53.256;6.456;2023-02-25T05:03:47;3.58;;;0.68;;
51764;SDS011;37835;53.256;6.456;2023-02-25T05:06:12;5.85;;;0.90;;
51764;SDS011;37835;53.256;6.456;2023-02-25T05:08:38;4.90;;;0.60;;
51764;SDS011;37835;53.256;6.456;2023-02-25T05:11:05;2.85;;;0.50;;
51764;SDS011;37835;53.256;6.456;2023-02-25T05:13:30;8.40;;;0.63;;
51764;SDS011;37835;53.256;6.456;2023-02-25T05:16:02;4.68;;;0.73;;
51764;SDS011;37835;53.256;6.456;2023-02-25T05:18:36;4.75;;;0.80;;
51764;SDS011;37835;53.256;6.456;2023-02-25T05:21:13;6.38;;;0.70;;
51764;SDS011;37835;53.256;6.456;2023-02-25T05:23:41;7.57;;;0.80;;
51764;SDS011;37835;53.256;6.456;2023-02-25T05:26:07;7.90;;;0.73;;
51764;SDS011;37835;53.256;6.456;2023-02-25T05:28:34;8.45;;;0.88;;
51764;SDS011;37835;53.256;6.456;2023-02-25T05:31:07;7.75;;;0.70;;
51764;SDS011;37835;53.256;6.456;2023-02-25T05:33:34;10.90;;;1.40;;
51764;SDS011;37835;53.256;6.456;2023-02-25T05:36:01;10.75;;;1.38;;
51764;SDS011;37835;53.256;6.456;2023-02-25T05:38:29;7.88;;;0.90;;
51764;SDS011;37835;53.256;6.456;2023-02-25T05:40:55;11.70;;;1.60;;
51764;SDS011;37835;53.256;6.456;2023-02-25T05:43:23;7.30;;;1.08;;
51764;SDS011;37835;53.256;6.456;2023-02-25T05:45:55;7.32;;;1.17;;
51764;SDS011;37835;53.256;6.456;2023-02-25T05:48:21;5.35;;;0.85;;
51764;SDS011;37835;53.256;6.456;2023-02-25T05:50:48;7.90;;;0.98;;
51764;SDS011;37835;53.256;6.456;2023-02-25T05:53:18;8.65;;;0.70;;
51764;SDS011;37835;53.256;6.456;2023-02-25T05:55:43;6.00;;;0.77;;
51764;SDS011;37835;53.256;6.456;2023-02-25T05:58:10;6.97;;;0.60;;
51764;SDS011;37835;53.256;6.456;2023-02-25T06:00:36;3.55;;;0.32;;
51764;SDS011;37835;53.256;6.456;2023-02-25T06:03:03;4.53;;;0.47;;
51764;SDS011;37835;53.256;6.456;2023-02-25T06:05:29;3.63;;;0.50;;
51764;SDS011;37835;53.256;6.456;2023-02-25T06:07:56;3.45;;;0.43;;
51764;SDS011;37835;53.256;6.456;2023-02-25T06:10:22;7.80;;;0.88;;
51764;SDS011;37835;53.256;6.456;2023-02-25T06:12:48;7.85;;;1.40;;
51764;SDS011;37835;53.256;6.456;2023-02-25T06:15:14;12.57;;;1.50;;
51764;SDS011;37835;53.256;6.456;2023-02-25T06:17:39;6.53;;;0.65;;
51764;SDS011;37835;53.256;6.456;2023-02-25T06:20:05;4.03;;;0.55;;
51764;SDS011;37835;53.256;6.456;2023-02-25T06:22:31;10.43;;;1.05;;
51764;SDS011;37835;53.256;6.456;2023-02-25T06:24:57;6.32;;;0.73;;
51764;SDS011;37835;53.256;6.456;2023-02-25T06:27:23;4.13;;;0.60;;
51764;SDS011;37835;53.256;6.456;2023-02-25T06:29:48;5.97;;;0.52;;
51764;SDS011;37835;53.256;6.456;2023-02-25T06:32:14;6.28;;;1.85;;
51764;SDS011;37835;53.256;6.456;2023-02-25T06:34:40;5.07;;;0.43;;
51764;SDS011;37835;53.256;6.456;2023-02-25T06:37:06;8.35;;;0.70;;
51764;SDS011;37835;53.256;6.456;2023-02-25T06:39:31;4.03;;;0.50;;
51764;SDS011;37835;53.256;6.456;2023-02-25T06:41:57;5.45;;;1.17;;
51764;SDS011;37835;53.256;6.456;2023-02-25T06:44:23;17.02;;;1.95;;
51764;SDS011;37835;53.256;6.456;2023-02-25T06:46:50;6.93;;;0.70;;
51764;SDS011;37835;53.256;6.456;2023-02-25T06:49:16;7.70;;;0.70;;
51764;SDS011;37835;53.256;6.456;2023-02-25T06:51:43;6.13;;;0.63;;
51764;SDS011;37835;53.256;6.456;2023-02-25T06:54:08;7.93;;;0.63;;
51764;SDS011;37835;53.256;6.456;2023-02-25T06:56:34;3.05;;;0.60;;
51764;SDS011;37835;53.256;6.456;2023-02-25T06:58:59;4.32;;;0.80;;
51764;SDS011;37835;53.256;6.456;2023-02-25T07:01:25;6.30;;;0.70;;
51764;SDS011;37835;53.256;6.456;2023-02-25T07:03:51;7.93;;;1.42;;
51764;SDS011;37835;53.256;6.456;2023-02-25T07:06:17;7.65;;;0.93;;
51764;SDS011;37835;53.256;6.456;2023-02-25T07:08:44;4.88;;;0.80;;
51764;SDS011;37835;53.256;6.456;2023-02-25T07:11:20;4.18;;;0.85;;
51764;SDS011;37835;53.256;6.456;2023-02-25T07:13:53;9.18;;;1.23;;
51764;SDS011;37835;53.256;6.456;2023-02-25T07:16:18;6.50;;;1.00;;
51764;SDS011;37835;53.256;6.456;2023-02-25T07:18:44;9.13;;;0.90;;
51764;SDS011;37835;53.256;6.456;2023-02-25T07:21:11;12.32;;;1.27;;
51764;SDS011;37835;53.256;6.456;2023-02-25T07:23:37;10.40;;;0.90;;
51764;SDS011;37835;53.256;6.456;2023-02-25T07:26:04;12.77;;;1.23;;
51764;SDS011;37835;53.256;6.456;2023-02-25T07:28:32;14.70;;;1.77;;
51764;SDS011;37835;53.256;6.456;2023-02-25T07:31:01;10.38;;;1.73;;
51764;SDS011;37835;53.256;6.456;2023-02-25T07:33:28;12.00;;;1.00;;
51764;SDS011;37835;53.256;6.456;2023-02-25T07:35:54;9.57;;;1.42;;
51764;SDS011;37835;53.256;6.456;2023-02-25T07:38:20;10.05;;;1.58;;
51764;SDS011;37835;53.256;6.456;2023-02-25T07:40:46;20.50;;;1.70;;
51764;SDS011;37835;53.256;6.456;2023-02-25T07:43:12;10.65;;;2.03;;
51764;SDS011;37835;53.256;6.456;2023-02-25T07:45:38;21.92;;;2.17;;
51764;SDS011;37835;53.256;6.456;2023-02-25T07:48:04;16.83;;;2.17;;
51764;SDS011;37835;53.256;6.456;2023-02-25T07:50:29;19.42;;;1.63;;
51764;SDS011;37835;53.256;6.456;2023-02-25T07:52:55;27.40;;;2.33;;
51764;SDS011;37835;53.256;6.456;2023-02-25T07:55:21;11.00;;;1.75;;
51764;SDS011;37835;53.256;6.456;2023-02-25T07:57:47;13.98;;;1.88;;
51764;SDS011;37835;53.256;6.456;2023-02-25T08:00:12;11.88;;;1.70;;
51764;SDS011;37835;53.256;6.456;2023-02-25T08:02:38;12.30;;;1.17;;
51764;SDS011;37835;53.256;6.456;2023-02-25T08:05:04;15.52;;;1.80;;
51764;SDS011;37835;53.256;6.456;2023-02-25T08:07:31;8.95;;;1.30;;
51764;SDS011;37835;53.256;6.456;2023-02-25T08:09:56;11.93;;;2.05;;
51764;SDS011;37835;53.256;6.456;2023-02-25T08:12:22;10.48;;;1.55;;
51764;SDS011;37835;53.256;6.456;2023-02-25T08:14:47;13.77;;;1.33;;
51764;SDS011;37835;53.256;6.456;2023-02-25T08:17:13;5.05;;;1.08;;
51764;SDS011;37835;53.256;6.456;2023-02-25T08:19:39;9.13;;;1.15;;
51764;SDS011;37835;53.256;6.456;2023-02-25T08:22:05;14.32;;;1.65;;
51764;SDS011;37835;53.256;6.456;2023-02-25T08:24:35;13.10;;;1.48;;
51764;SDS011;37835;53.256;6.456;2023-02-25T08:27:02;13.18;;;1.38;;
51764;SDS011;37835;53.256;6.456;2023-02-25T08:29:27;7.70;;;1.23;;
51764;SDS011;37835;53.256;6.456;2023-02-25T08:31:53;13.07;;;1.70;;
51764;SDS011;37835;53.256;6.456;2023-02-25T08:34:19;10.35;;;1.05;;
51764;SDS011;37835;53.256;6.456;2023-02-25T08:36:44;9.93;;;1.40;;
51764;SDS011;37835;53.256;6.456;2023-02-25T08:39:10;13.80;;;1.60;;
51764;SDS011;37835;53.256;6.456;2023-02-25T08:41:35;12.07;;;1.15;;
51764;SDS011;37835;53.256;6.456;2023-02-25T08:44:01;9.30;;;1.27;;
51764;SDS011;37835;53.256;6.456;2023-02-25T08:46:28;9.90;;;1.10;;
51764;SDS011;37835;53.256;6.456;2023-02-25T08:48:55;12.95;;;1.40;;
51764;SDS011;37835;53.256;6.456;2023-02-25T08:51:21;15.80;;;1.33;;
51764;SDS011;37835;53.256;6.456;2023-02-25T08:53:48;12.65;;;1.85;;
51764;SDS011;37835;53.256;6.456;2023-02-25T08:56:15;15.20;;;1.40;;
51764;SDS011;37835;53.256;6.456;2023-02-25T08:58:41;10.82;;;2.22;;
51764;SDS011;37835;53.256;6.456;2023-02-25T09:01:07;10.02;;;1.10;;
51764;SDS011;37835;53.256;6.456;2023-02-25T09:03:37;14.60;;;1.65;;
51764;SDS011;37835;53.256;6.456;2023-02-25T09:06:03;10.10;;;1.35;;
51764;SDS011;37835;53.256;6.456;2023-02-25T09:08:29;12.65;;;2.08;;
51764;SDS011;37835;53.256;6.456;2023-02-25T09:10:55;7.18;;;1.35;;
51764;SDS011;37835;53.256;6.456;2023-02-25T09:13:21;10.48;;;1.33;;
51764;SDS011;37835;53.256;6.456;2023-02-25T09:15:54;8.80;;;1.08;;
51764;SDS011;37835;53.256;6.456;2023-02-25T09:18:20;9.52;;;1.38;;
51764;SDS011;37835;53.256;6.456;2023-02-25T09:20:48;8.75;;;1.02;;
51764;SDS011;37835;53.256;6.456;2023-02-25T09:23:15;10.90;;;1.73;;
51764;SDS011;37835;53.256;6.456;2023-02-25T09:25:41;14.18;;;2.40;;
51764;SDS011;37835;53.256;6.456;2023-02-25T09:28:09;13.10;;;2.20;;
51764;SDS011;37835;53.256;6.456;2023-02-25T09:30:35;16.45;;;3.03;;
51764;SDS011;37835;53.256;6.456;2023-02-25T09:33:00;12.10;;;1.75;;
51764;SDS011;37835;53.256;6.456;2023-02-25T09:35:26;10.93;;;1.55;;
51764;SDS011;37835;53.256;6.456;2023-02-25T09:37:51;8.70;;;1.60;;
51764;SDS011;37835;53.256;6.456;2023-02-25T09:40:17;10.30;;;1.35;;
51764;SDS011;37835;53.256;6.456;2023-02-25T09:45:32;11.80;;;1.88;;
51764;SDS011;37835;53.256;6.456;2023-02-25T09:47:59;11.88;;;1.83;;
51764;SDS011;37835;53.256;6.456;2023-02-25T09:50:33;13.52;;;2.08;;
51764;SDS011;37835;53.256;6.456;2023-02-25T09:53:11;18.45;;;1.65;;
51764;SDS011;37835;53.256;6.456;2023-02-25T09:55:40;16.33;;;1.73;;
51764;SDS011;37835;53.256;6.456;2023-02-25T10:00:51;17.83;;;3.03;;
51764;SDS011;37835;53.256;6.456;2023-02-25T10:09:17;9.30;;;1.40;;
51764;SDS011;37835;53.256;6.456;2023-02-25T10:12:10;10.15;;;1.70;;
51764;SDS011;37835;53.256;6.456;2023-02-25T10:17:34;8.52;;;1.60;;
51764;SDS011;37835;53.256;6.456;2023-02-25T10:28:28;4.57;;;1.40;;
51764;SDS011;37835;53.256;6.456;2023-02-25T10:31:00;11.60;;;1.30;;
51764;SDS011;37835;53.256;6.456;2023-02-25T10:33:32;8.57;;;1.90;;
51764;SDS011;37835;53.256;6.456;2023-02-25T10:38:33;7.97;;;1.52;;
51764;SDS011;37835;53.256;6.456;2023-02-25T10:41:12;9.55;;;1.58;;
51764;SDS011;37835;53.256;6.456;2023-02-25T10:43:38;9.88;;;1.17;;
51764;SDS011;37835;53.256;6.456;2023-02-25T10:48:52;9.95;;;1.75;;
51764;SDS011;37835;53.256;6.456;2023-02-25T10:51:21;16.48;;;1.90;;
51764;SDS011;37835;53.256;6.456;2023-02-25T10:56:21;9.38;;;1.63;;
51764;SDS011;37835;53.256;6.456;2023-02-25T10:58:58;11.70;;;1.90;;
51764;SDS011;37835;53.256;6.456;2023-02-25T11:01:41;8.65;;;1.52;;
51764;SDS011;37835;53.256;6.456;2023-02-25T11:04:12;8.82;;;1.40;;
51764;SDS011;37835;53.256;6.456;2023-02-25T11:06:41;11.00;;;1.08;;
51764;SDS011;37835;53.256;6.456;2023-02-25T11:11:52;4.88;;;0.65;;
51764;SDS011;37835;53.256;6.456;2023-02-25T11:14:25;9.07;;;1.00;;
51764;SDS011;37835;53.256;6.456;2023-02-25T11:16:58;4.05;;;0.50;;
51764;SDS011;37835;53.256;6.456;2023-02-25T11:19:27;3.40;;;0.93;;
51764;SDS011;37835;53.256;6.456;2023-02-25T11:21:55;7.95;;;0.95;;
51764;SDS011;37835;53.256;6.456;2023-02-25T11:24:30;10.77;;;1.90;;
51764;SDS011;37835;53.256;6.456;2023-02-25T11:26:59;7.05;;;0.90;;
51764;SDS011;37835;53.256;6.456;2023-02-25T11:29:30;9.05;;;1.25;;
51764;SDS011;37835;53.256;6.456;2023-02-25T11:37:24;6.18;;;0.80;;
51764;SDS011;37835;53.256;6.456;2023-02-25T11:39:56;9.10;;;0.98;;
51764;SDS011;37835;53.256;6.456;2023-02-25T11:42:24;4.75;;;0.90;;
51764;SDS011;37835;53.256;6.456;2023-02-25T11:44:58;12.20;;;0.90;;
51764;SDS011;37835;53.256;6.456;2023-02-25T11:47:27;4.57;;;0.70;;
51764;SDS011;37835;53.256;6.456;2023-02-25T12:06:07;6.63;;;1.10;;
51764;SDS011;37835;53.256;6.456;2023-02-25T12:14:18;5.22;;;1.00;;
51764;SDS011;37835;53.256;6.456;2023-02-25T12:17:13;9.90;;;1.40;;
51764;SDS011;37835;53.256;6.456;2023-02-25T12:20:17;11.55;;;1.33;;
51764;SDS011;37835;53.256;6.456;2023-02-25T12:23:13;9.30;;;1.23;;
51764;SDS011;37835;53.256;6.456;2023-02-25T12:26:14;8.50;;;1.45;;
51764;SDS011;37835;53.256;6.456;2023-02-25T12:34:59;8.70;;;1.55;;
51764;SDS011;37835;53.256;6.456;2023-02-25T12:43:01;7.97;;;1.00;;
51764;SDS011;37835;53.256;6.456;2023-02-25T12:57:37;7.25;;;1.00;;
51764;SDS011;37835;53.256;6.456;2023-02-25T13:06:15;8.23;;;1.20;;
51764;SDS011;37835;53.256;6.456;2023-02-25T13:09:10;10.20;;;1.33;;
51764;SDS011;37835;53.256;6.456;2023-02-25T13:17:34;7.10;;;1.42;;
51764;SDS011;37835;53.256;6.456;2023-02-25T13:23:13;14.40;;;1.80;;
51764;SDS011;37835;53.256;6.456;2023-02-25T13:26:09;7.13;;;1.27;;
51764;SDS011;37835;53.256;6.456;2023-02-25T13:45:45;12.18;;;1.58;;
51764;SDS011;37835;53.256;6.456;2023-02-25T13:48:34;11.27;;;1.60;;
51764;SDS011;37835;53.256;6.456;2023-02-25T13:51:10;7.80;;;1.42;;
51764;SDS011;37835;53.256;6.456;2023-02-25T13:53:46;11.52;;;1.70;;
51764;SDS011;37835;53.256;6.456;2023-02-25T13:56:42;7.82;;;1.38;;
51764;SDS011;37835;53.256;6.456;2023-02-25T13:59:22;10.23;;;1.40;;
51764;SDS011;37835;53.256;6.456;2023-02-25T14:08:06;4.35;;;1.30;;
51764;SDS011;37835;53.256;6.456;2023-02-25T14:10:41;5.72;;;1.02;;
51764;SDS011;37835;53.256;6.456;2023-02-25T14:13:22;11.23;;;1.08;;
51764;SDS011;37835;53.256;6.456;2023-02-25T14:16:02;10.90;;;1.87;;
51764;SDS011;37835;53.256;6.456;2023-02-25T14:18:38;7.05;;;1.13;;
51764;SDS011;37835;53.256;6.456;2023-02-25T14:23:53;8.50;;;1.15;;
51764;SDS011;37835;53.256;6.456;2023-02-25T14:34:55;5.15;;;0.80;;
51764;SDS011;37835;53.256;6.456;2023-02-25T14:37:52;8.82;;;1.02;;
51764;SDS011;37835;53.256;6.456;2023-02-25T14:45:52;9.15;;;1.08;;
51764;SDS011;37835;53.256;6.456;2023-02-25T14:48:37;9.15;;;1.42;;
51764;SDS011;37835;53.256;6.456;2023-02-25T14:56:57;11.75;;;1.27;;
51764;SDS011;37835;53.256;6.456;2023-02-25T15:02:30;12.48;;;1.83;;
51764;SDS011;37835;53.256;6.456;2023-02-25T15:23:55;5.40;;;0.73;;
51764;SDS011;37835;53.256;6.456;2023-02-25T15:26:25;5.13;;;1.00;;
51764;SDS011;37835;53.256;6.456;2023-02-25T15:29:17;7.05;;;1.05;;
51764;SDS011;37835;53.256;6.456;2023-02-25T15:37:24;7.05;;;0.90;;
51764;SDS011;37835;53.256;6.456;2023-02-25T15:40:00;9.65;;;1.38;;
51764;SDS011;37835;53.256;6.456;2023-02-25T15:42:52;4.35;;;0.85;;
51764;SDS011;37835;53.256;6.456;2023-02-25T15:53:07;7.15;;;0.80;;
51764;SDS011;37835;53.256;6.456;2023-02-25T16:06:15;7.68;;;1.60;;
51764;SDS011;37835;53.256;6.456;2023-02-25T16:08:44;9.18;;;3.30;;
51764;SDS011;37835;53.256;6.456;2023-02-25T16:11:19;11.32;;;1.75;;
51764;SDS011;37835;53.256;6.456;2023-02-25T16:13:58;7.68;;;1.45;;
51764;SDS011;37835;53.256;6.456;2023-02-25T16:16:27;10.18;;;2.63;;
51764;SDS011;37835;53.256;6.456;2023-02-25T16:18:54;12.57;;;3.65;;
51764;SDS011;37835;53.256;6.456;2023-02-25T16:21:23;14.90;;;5.32;;
51764;SDS011;37835;53.256;6.456;2023-02-25T16:23:52;13.25;;;4.60;;
51764;SDS011;37835;53.256;6.456;2023-02-25T16:31:41;9.75;;;1.70;;
51764;SDS011;37835;53.256;6.456;2023-02-25T16:34:32;11.13;;;1.73;;
51764;SDS011;37835;53.256;6.456;2023-02-25T16:39:44;5.63;;;1.63;;
51764;SDS011;37835;53.256;6.456;2023-02-25T16:42:14;13.20;;;2.13;;
51764;SDS011;37835;53.256;6.456;2023-02-25T16:44:45;7.47;;;1.73;;
51764;SDS011;37835;53.256;6.456;2023-02-25T16:49:49;7.97;;;1.42;;
51764;SDS011;37835;53.256;6.456;2023-02-25T16:52:19;12.00;;;1.23;;
51764;SDS011;37835;53.256;6.456;2023-02-25T16:54:58;5.82;;;1.02;;
51764;SDS011;37835;53.256;6.456;2023-02-25T16:57:25;4.82;;;1.15;;
51764;SDS011;37835;53.256;6.456;2023-02-25T17:00:03;9.40;;;1.63;;
51764;SDS011;37835;53.256;6.456;2023-02-25T17:02:44;9.90;;;1.73;;
51764;SDS011;37835;53.256;6.456;2023-02-25T17:05:25;11.10;;;0.93;;
51764;SDS011;37835;53.256;6.456;2023-02-25T17:07:58;7.63;;;0.98;;
51764;SDS011;37835;53.256;6.456;2023-02-25T17:10:30;12.30;;;1.10;;
51764;SDS011;37835;53.256;6.456;2023-02-25T17:13:09;9.57;;;0.95;;
51764;SDS011;37835;53.256;6.456;2023-02-25T17:15:41;12.55;;;1.95;;
51764;SDS011;37835;53.256;6.456;2023-02-25T17:18:10;13.80;;;1.48;;
51764;SDS011;37835;53.256;6.456;2023-02-25T17:20:42;7.90;;;1.05;;
51764;SDS011;37835;53.256;6.456;2023-02-25T17:23:09;6.53;;;1.00;;
51764;SDS011;37835;53.256;6.456;2023-02-25T17:25:39;6.03;;;1.30;;
51764;SDS011;37835;53.256;6.456;2023-02-25T17:28:07;8.90;;;1.50;;
51764;SDS011;37835;53.256;6.456;2023-02-25T17:30:48;7.53;;;1.50;;
51764;SDS011;37835;53.256;6.456;2023-02-25T17:35:49;6.93;;;0.85;;
51764;SDS011;37835;53.256;6.456;2023-02-25T17:38:18;7.18;;;0.82;;
51764;SDS011;37835;53.256;6.456;2023-02-25T17:40:46;4.95;;;0.68;;
51764;SDS011;37835;53.256;6.456;2023-02-25T17:45:55;4.53;;;0.95;;
51764;SDS011;37835;53.256;6.456;2023-02-25T17:48:25;3.25;;;0.63;;
51764;SDS011;37835;53.256;6.456;2023-02-25T17:50:55;10.32;;;0.90;;
51764;SDS011;37835;53.256;6.456;2023-02-25T17:53:28;5.88;;;0.68;;
51764;SDS011;37835;53.256;6.456;2023-02-25T17:56:06;5.85;;;0.90;;
51764;SDS011;37835;53.256;6.456;2023-02-25T17:58:37;3.13;;;0.98;;
51764;SDS011;37835;53.256;6.456;2023-02-25T18:01:03;9.98;;;0.90;;
51764;SDS011;37835;53.256;6.456;2023-02-25T18:03:29;4.97;;;0.80;;
51764;SDS011;37835;53.256;6.456;2023-02-25T18:08:56;3.75;;;0.73;;
51764;SDS011;37835;53.256;6.456;2023-02-25T18:16:57;3.63;;;0.60;;
51764;SDS011;37835;53.256;6.456;2023-02-25T18:19:24;7.20;;;1.05;;
51764;SDS011;37835;53.256;6.456;2023-02-25T18:22:00;6.90;;;1.65;;
51764;SDS011;37835;53.256;6.456;2023-02-25T18:24:30;6.15;;;1.60;;
51764;SDS011;37835;53.256;6.456;2023-02-25T18:27:03;5.43;;;1.63;;
51764;SDS011;37835;53.256;6.456;2023-02-25T18:29:29;6.93;;;1.52;;
51764;SDS011;37835;53.256;6.456;2023-02-25T18:31:55;4.93;;;1.38;;
51764;SDS011;37835;53.256;6.456;2023-02-25T18:34:21;7.05;;;1.17;;
51764;SDS011;37835;53.256;6.456;2023-02-25T18:36:46;4.70;;;1.40;;
51764;SDS011;37835;53.256;6.456;2023-02-25T18:39:12;6.88;;;1.50;;
51764;SDS011;37835;53.256;6.456;2023-02-25T18:41:37;7.85;;;1.00;;
51764;SDS011;37835;53.256;6.456;2023-02-25T18:44:14;9.57;;;1.40;;